createdAt,value
2023-01-06T00:01:25.343Z,1.20
2023-01-06T00:05:08.775Z,1.20
2023-01-06T00:08:51.417Z,1.50
2023-01-06T00:12:34.196Z,1.30
2023-01-06T00:16:20.133Z,1.20
2023-01-06T00:20:02.982Z,1.10
2023-01-06T00:23:46.579Z,1.10
2023-01-06T00:27:29.220Z,1.23
2023-01-06T00:31:13.210Z,1.13
2023-01-06T00:34:57.259Z,1.10
2023-01-06T00:38:43.346Z,1.37
2023-01-06T00:42:26.195Z,1.27
2023-01-06T00:46:08.916Z,1.20
2023-01-06T00:49:51.644Z,1.20
2023-01-06T00:53:37.394Z,1.80
2023-01-06T00:57:20.099Z,1.20
2023-01-06T01:01:05.837Z,1.20
2023-01-06T01:04:50.674Z,1.10
2023-01-06T01:08:34.980Z,0.83
2023-01-06T01:12:17.921Z,1.10
2023-01-06T01:16:05.219Z,0.87
2023-01-06T01:19:48.497Z,1.10
2023-01-06T01:23:31.298Z,1.00
2023-01-06T01:27:15.433Z,1.10
2023-01-06T01:31:00.527Z,0.93
2023-01-06T01:34:43.175Z,1.20
2023-01-06T01:38:26.854Z,1.13
2023-01-06T01:42:17.089Z,1.20
2023-01-06T01:45:59.957Z,1.03
2023-01-06T01:49:44.970Z,0.83
2023-01-06T01:53:30.082Z,0.90
2023-01-06T01:57:14.810Z,1.07
2023-01-06T02:00:58.834Z,0.90
2023-01-06T02:04:43.542Z,1.10
2023-01-06T02:08:33.011Z,0.80
2023-01-06T02:12:15.822Z,0.90
2023-01-06T02:16:05.475Z,1.03
2023-01-06T02:20:17.057Z,1.20
2023-01-06T02:24:30.493Z,1.03
2023-01-06T02:28:31.673Z,1.20
2023-01-06T02:32:26.907Z,1.00
2023-01-06T02:36:19.643Z,1.10
2023-01-06T02:40:13.124Z,1.30
2023-01-06T02:44:02.372Z,1.10
2023-01-06T02:47:54.120Z,0.90
2023-01-06T02:51:43.735Z,1.17
2023-01-06T02:55:33.103Z,1.17
2023-01-06T02:59:20.950Z,1.00
2023-01-06T03:03:07.646Z,1.20
2023-01-06T03:06:52.668Z,1.30
2023-01-06T03:10:35.946Z,2.50
2023-01-06T03:14:22.924Z,1.90
2023-01-06T03:18:07.329Z,1.03
2023-01-06T03:21:50.996Z,1.20
2023-01-06T03:25:33.845Z,1.00
2023-01-06T03:29:18.214Z,0.90
2023-01-06T03:33:07.640Z,0.97
2023-01-06T03:37:00.531Z,0.80
2023-01-06T03:40:45.459Z,0.90
2023-01-06T03:44:34.660Z,0.90
2023-01-06T03:48:22.767Z,0.70
2023-01-06T03:52:10.962Z,1.10
2023-01-06T03:55:58.257Z,0.90
2023-01-06T03:59:43.105Z,0.83
2023-01-06T04:03:27.155Z,0.70
2023-01-06T04:07:11.252Z,0.97
2023-01-06T04:10:55.776Z,1.00
2023-01-06T04:14:38.517Z,1.00
2023-01-06T04:18:21.313Z,0.87
2023-01-06T04:22:03.960Z,1.30
2023-01-06T04:25:47.976Z,0.80
2023-01-06T04:29:30.700Z,0.80
2023-01-06T04:33:13.503Z,0.77
2023-01-06T04:36:56.188Z,0.70
2023-01-06T04:40:38.959Z,0.70
2023-01-06T04:44:23.037Z,0.77
2023-01-06T04:48:06.280Z,0.87
2023-01-06T04:51:48.901Z,0.90
2023-01-06T04:55:31.671Z,1.00
2023-01-06T04:59:14.416Z,0.93
2023-01-06T05:02:58.585Z,1.20
2023-01-06T05:06:41.284Z,1.20
2023-01-06T05:10:24.034Z,1.17
2023-01-06T05:14:06.696Z,1.20
2023-01-06T05:17:51.375Z,1.60
2023-01-06T05:21:35.410Z,1.20
2023-01-06T05:25:18.083Z,1.00
2023-01-06T05:29:00.779Z,1.10
2023-01-06T05:32:43.546Z,0.77
2023-01-06T05:36:26.186Z,1.00
2023-01-06T05:40:11.823Z,0.93
2023-01-06T05:43:54.454Z,1.10
2023-01-06T05:47:37.124Z,0.97
2023-01-06T05:51:19.974Z,0.70
2023-01-06T05:55:02.674Z,0.77
2023-01-06T05:58:49.411Z,0.63
2023-01-06T06:02:32.278Z,0.70
2023-01-06T06:06:15.381Z,0.60
2023-01-06T06:09:58.061Z,0.83
2023-01-06T06:13:41.029Z,0.80
2023-01-06T06:17:25.359Z,0.80
2023-01-06T06:21:07.993Z,0.70
2023-01-06T06:24:50.619Z,0.67
2023-01-06T06:28:33.980Z,0.80
2023-01-06T06:32:16.747Z,0.80
2023-01-06T06:36:01.745Z,0.90
2023-01-06T06:39:44.389Z,0.70
2023-01-06T06:43:27.036Z,0.90
2023-01-06T06:47:09.672Z,1.10
2023-01-06T06:50:57.815Z,0.93
2023-01-06T06:54:41.872Z,1.00
2023-01-06T06:58:24.645Z,0.90
2023-01-06T07:02:07.515Z,0.80
2023-01-06T07:05:51.676Z,0.93
2023-01-06T07:09:34.485Z,1.40
2023-01-06T07:13:18.495Z,1.10
2023-01-06T07:17:02.092Z,1.00
2023-01-06T07:20:50.919Z,1.10
2023-01-06T07:24:33.588Z,0.87
2023-01-06T07:28:16.254Z,0.60
2023-01-06T07:32:00.862Z,0.70
2023-01-06T07:35:43.534Z,0.90
2023-01-06T07:39:26.222Z,1.00
2023-01-06T07:43:10.738Z,0.80
2023-01-06T07:46:55.659Z,0.80
2023-01-06T07:50:39.837Z,0.80
2023-01-06T07:54:22.469Z,0.73
2023-01-06T07:58:06.783Z,0.70
2023-01-06T08:01:53.409Z,0.60
2023-01-06T08:05:39.177Z,0.60
2023-01-06T08:09:24.522Z,0.73
2023-01-06T08:13:07.253Z,0.90
2023-01-06T08:16:52.409Z,0.77
2023-01-06T08:20:35.127Z,0.67
2023-01-06T08:24:19.264Z,0.80
2023-01-06T08:28:02.026Z,0.70
2023-01-06T08:31:44.673Z,0.83
2023-01-06T08:35:27.618Z,0.90
2023-01-06T08:39:10.399Z,0.97
2023-01-06T08:42:54.474Z,0.90
2023-01-06T08:46:37.257Z,1.43
2023-01-06T08:50:19.962Z,1.10
2023-01-06T08:54:02.648Z,1.30
2023-01-06T08:57:45.308Z,1.10
2023-01-06T09:01:31.256Z,0.90
2023-01-06T09:05:14.120Z,1.13
2023-01-06T09:08:57.475Z,1.20
2023-01-06T09:12:40.616Z,0.90
2023-01-06T09:16:23.531Z,1.20
2023-01-06T09:20:08.773Z,0.90
2023-01-06T09:23:51.807Z,1.10
2023-01-06T09:27:34.471Z,0.93
2023-01-06T09:31:18.331Z,1.10
2023-01-06T09:35:01.169Z,0.90
2023-01-06T09:38:45.250Z,0.90
2023-01-06T09:42:39.698Z,0.50
2023-01-06T09:46:24.672Z,0.60
2023-01-06T09:50:10.365Z,0.63
2023-01-06T09:53:58.868Z,0.50
2023-01-06T09:57:45.752Z,0.70
2023-01-06T10:01:31.078Z,0.60
2023-01-06T10:05:20.707Z,0.50
2023-01-06T10:09:13.478Z,0.50
2023-01-06T10:13:04.402Z,0.70
2023-01-06T10:16:58.777Z,0.77
2023-01-06T10:20:56.007Z,0.80
2023-01-06T10:24:56.306Z,0.73
2023-01-06T10:28:42.633Z,0.63
2023-01-06T10:32:26.381Z,0.80
2023-01-06T10:36:13.432Z,1.87
2023-01-06T10:40:03.470Z,1.00
2023-01-06T10:43:46.310Z,0.90
2023-01-06T10:47:30.184Z,2.70
2023-01-06T10:51:32.381Z,1.10
2023-01-06T10:55:27.878Z,1.20
2023-01-06T10:59:11.904Z,1.10
2023-01-06T11:03:04.739Z,1.10
2023-01-06T11:06:59.905Z,1.30
2023-01-06T11:10:46.926Z,1.13
2023-01-06T11:14:31.734Z,1.00
2023-01-06T11:18:24.546Z,1.27
2023-01-06T11:22:36.956Z,0.97
2023-01-06T11:26:23.624Z,1.23
2023-01-06T11:30:21.834Z,1.20
2023-01-06T11:34:04.885Z,1.50
2023-01-06T11:37:47.664Z,1.60
2023-01-06T11:41:33.857Z,1.80
2023-01-06T11:45:31.515Z,2.10
2023-01-06T11:49:16.978Z,2.43
2023-01-06T11:53:01.581Z,2.30
2023-01-06T11:56:58.679Z,2.20
2023-01-06T12:00:46.233Z,2.00
2023-01-06T12:04:33.872Z,1.77
2023-01-06T12:08:19.661Z,2.33
2023-01-06T12:12:07.690Z,2.40
2023-01-06T12:15:57.886Z,2.23
2023-01-06T12:19:43.868Z,1.90
2023-01-06T12:23:27.941Z,2.33
2023-01-06T12:27:12.950Z,2.20
2023-01-06T12:30:59.727Z,2.50
2023-01-06T12:34:46.082Z,2.33
2023-01-06T12:38:40.309Z,2.03
2023-01-06T12:42:29.879Z,2.20
2023-01-06T12:46:16.761Z,1.87
2023-01-06T12:50:02.150Z,1.60
2023-01-06T12:53:49.140Z,1.60
2023-01-06T12:57:52.860Z,1.77
2023-01-06T13:01:41.557Z,1.70
2023-01-06T13:05:49.781Z,1.20
2023-01-06T13:09:41.255Z,1.07
2023-01-06T13:13:50.052Z,1.23
2023-01-06T13:17:35.951Z,1.20
2023-01-06T13:21:20.991Z,1.30
2023-01-06T13:25:21.037Z,1.13
2023-01-06T13:29:13.348Z,1.10
2023-01-06T13:33:18.433Z,1.17
2023-01-06T13:37:16.759Z,0.97
2023-01-06T13:41:00.321Z,0.73
2023-01-06T13:44:45.404Z,0.93
2023-01-06T13:48:31.382Z,1.23
2023-01-06T13:52:18.583Z,1.00
2023-01-06T13:56:26.402Z,1.57
2023-01-06T14:00:20.184Z,0.70
2023-01-06T14:04:46.129Z,0.80
2023-01-06T14:08:31.818Z,0.77
2023-01-06T14:12:19.405Z,0.70
2023-01-06T14:16:06.931Z,0.70
2023-01-06T14:19:54.050Z,0.70
2023-01-06T14:23:37.441Z,0.90
2023-01-06T14:27:53.717Z,0.70
2023-01-06T14:31:40.825Z,0.67
2023-01-06T14:35:29.713Z,0.60
2023-01-06T14:39:22.373Z,0.73
2023-01-06T14:43:15.452Z,0.90
2023-01-06T14:47:03.295Z,0.70
2023-01-06T14:50:49.680Z,0.60
2023-01-06T14:54:37.523Z,0.60
2023-01-06T14:58:30.574Z,0.77
2023-01-06T15:02:22.596Z,0.80
2023-01-06T15:06:17.544Z,0.70
2023-01-06T15:10:18.086Z,0.70
2023-01-06T15:14:03.230Z,0.60
2023-01-06T15:17:47.423Z,0.70
2023-01-06T15:21:30.210Z,1.00
2023-01-06T15:25:20.004Z,0.90
2023-01-06T15:29:05.748Z,1.07
2023-01-06T15:32:51.116Z,0.80
2023-01-06T15:36:34.275Z,1.33
2023-01-06T15:40:19.929Z,1.20
2023-01-06T15:44:04.919Z,1.20
2023-01-06T15:47:49.884Z,1.00
2023-01-06T15:51:32.915Z,1.20
2023-01-06T15:55:22.968Z,1.33
2023-01-06T15:59:12.740Z,1.10
2023-01-06T16:02:56.865Z,0.80
2023-01-06T16:06:40.894Z,0.90
2023-01-06T16:10:35.627Z,1.53
2023-01-06T16:14:29.882Z,0.63
2023-01-06T16:18:14.295Z,0.87
2023-01-06T16:21:57.374Z,0.90
2023-01-06T16:25:40.164Z,1.10
2023-01-06T16:29:29.134Z,1.00
2023-01-06T16:33:38.918Z,0.90
2023-01-06T16:37:21.834Z,1.10
2023-01-06T16:41:04.937Z,0.90
2023-01-06T16:45:00.771Z,1.20
2023-01-06T16:48:44.801Z,1.40
2023-01-06T16:52:27.574Z,1.60
2023-01-06T16:56:16.675Z,1.30
2023-01-06T16:59:59.327Z,1.43
2023-01-06T17:03:44.144Z,1.20
2023-01-06T17:07:26.849Z,1.50
2023-01-06T17:11:16.056Z,1.30
2023-01-06T17:14:58.721Z,1.30
2023-01-06T17:18:50.013Z,1.20
2023-01-06T17:22:32.894Z,1.40
2023-01-06T17:26:17.802Z,1.60
2023-01-06T17:30:02.529Z,1.60
2023-01-06T17:33:47.142Z,1.40
2023-01-06T17:37:31.041Z,1.60
2023-01-06T17:41:17.126Z,1.80
2023-01-06T17:45:01.052Z,1.77
2023-01-06T17:48:43.912Z,1.70
2023-01-06T17:52:31.942Z,1.80
2023-01-06T17:56:13.993Z,2.10
2023-01-06T17:59:57.131Z,2.10
2023-01-06T18:03:42.684Z,2.27
2023-01-06T18:07:29.799Z,2.43
2023-01-06T18:11:33.590Z,2.60
2023-01-06T18:15:30.432Z,3.10
2023-01-06T18:19:25.415Z,2.00
2023-01-06T18:23:17.653Z,2.37
2023-01-06T18:27:01.462Z,2.53
2023-01-06T18:30:47.251Z,2.70
2023-01-06T18:34:33.842Z,2.50
2023-01-06T18:38:17.901Z,2.40
2023-01-06T18:42:19.523Z,2.70
2023-01-06T18:46:03.276Z,2.40
2023-01-06T18:49:46.633Z,2.50
2023-01-06T18:53:31.940Z,2.40
2023-01-06T18:57:21.113Z,2.43
2023-01-06T19:01:14.409Z,2.80
2023-01-06T19:04:57.229Z,2.80
2023-01-06T19:08:43.852Z,2.60
2023-01-06T19:12:30.106Z,3.03
2023-01-06T19:16:27.793Z,3.47
2023-01-06T19:20:15.586Z,3.20
2023-01-06T19:24:00.778Z,2.80
2023-01-06T19:27:48.547Z,2.90
2023-01-06T19:31:31.540Z,2.90
2023-01-06T19:35:19.989Z,2.90
2023-01-06T19:39:16.361Z,2.93
2023-01-06T19:43:11.011Z,2.70
2023-01-06T19:46:53.830Z,2.60
2023-01-06T19:50:36.515Z,2.83
2023-01-06T19:54:26.643Z,3.00
2023-01-06T19:58:17.985Z,3.03
2023-01-06T20:02:04.104Z,2.73
2023-01-06T20:05:46.877Z,2.60
2023-01-06T20:09:33.679Z,2.40
2023-01-06T20:13:16.589Z,2.50
2023-01-06T20:16:59.591Z,2.77
2023-01-06T20:20:42.268Z,2.60
2023-01-06T20:24:25.067Z,7.73
2023-01-06T20:28:09.165Z,3.40
2023-01-06T20:31:51.923Z,2.30
2023-01-06T20:35:34.715Z,2.73
2023-01-06T20:39:17.431Z,2.70
2023-01-06T20:43:00.332Z,3.30
2023-01-06T20:46:44.442Z,3.27
2023-01-06T20:50:27.786Z,3.50
2023-01-06T20:54:10.499Z,4.00
2023-01-06T20:57:53.162Z,3.80
2023-01-06T21:01:35.976Z,3.67
2023-01-06T21:05:22.989Z,3.10
2023-01-06T21:09:05.839Z,2.97
2023-01-06T21:12:48.495Z,2.67
2023-01-06T21:16:31.207Z,2.50
2023-01-06T21:20:13.984Z,3.33
2023-01-06T21:24:00.276Z,2.93
2023-01-06T21:27:43.080Z,3.33
2023-01-06T21:31:25.835Z,3.27
2023-01-06T21:35:11.540Z,3.20
2023-01-06T21:38:54.298Z,3.20
2023-01-06T21:42:58.089Z,3.20
2023-01-06T21:46:41.242Z,3.00
2023-01-06T21:50:26.732Z,2.90
2023-01-06T21:54:09.755Z,3.10
2023-01-06T21:57:53.928Z,2.87
2023-01-06T22:01:36.724Z,2.77
2023-01-06T22:05:21.716Z,3.20
2023-01-06T22:09:08.091Z,3.20
2023-01-06T22:12:52.712Z,2.97
2023-01-06T22:16:37.224Z,3.00
2023-01-06T22:20:20.101Z,2.93
2023-01-06T22:24:03.305Z,2.67
2023-01-06T22:27:45.967Z,2.90
2023-01-06T22:31:28.672Z,2.93
2023-01-06T22:35:13.161Z,2.77
2023-01-06T22:38:55.811Z,2.70
2023-01-06T22:42:38.502Z,3.07
2023-01-06T22:46:21.290Z,3.00
2023-01-06T22:50:05.392Z,3.23
2023-01-06T22:53:49.447Z,2.47
2023-01-06T22:57:32.103Z,2.90
2023-01-06T23:01:14.955Z,3.03
2023-01-06T23:04:57.663Z,2.60
2023-01-06T23:08:51.150Z,2.80
2023-01-06T23:12:43.700Z,3.07
2023-01-06T23:16:28.981Z,3.00
2023-01-06T23:20:12.597Z,3.17
2023-01-06T23:23:55.556Z,3.30
2023-01-06T23:27:38.835Z,3.13
2023-01-06T23:31:24.296Z,3.10
2023-01-06T23:35:07.397Z,3.13
2023-01-06T23:38:50.550Z,3.20
2023-01-06T23:42:48.030Z,3.40
2023-01-06T23:46:35.860Z,2.87
2023-01-06T23:50:18.567Z,2.70
2023-01-06T23:54:02.058Z,2.57
2023-01-06T23:57:44.740Z,2.77
